KLBF/LBF METAR and TAF weather

Enter ICAO airport designator
Station Type Date Time Source
KLBF METAR 2019/09/21 04:53 UTC NOAA

KLBF 210453Z AUTO 17012G26KT 10SM CLR 22/18 A2974 RMK AO2 PK WND 15031/0424 SLP042 T02220178


Station Type Date Time Source
KLBF Decoded METAR 2019/09/21 04:53 UTC NOAA

NORTH PLATTE REGIONAL AIRPORT , NE, United States (KLBF) 41-07N 100-40W 847M
Sep 21, 2019 - 12:53 AM EDT / 2019.09.21 0453 UTC
Wind: from the S (170 degrees) at 14 MPH (12 KT) gusting to 30 MPH (26 KT):0
Visibility: 10 mile(s):0
Sky conditions: clear
Temperature: 72.0 F (22.2 C)
Dew Point: 64.0 F (17.8 C)
Relative Humidity: 76%
Pressure (altimeter): 29.74 in. Hg (1007 hPa)
ob: KLBF 210453Z AUTO 17012G26KT 10SM CLR 22/18 A2974 RMK AO2 PK WND 15031/0424 SLP042 T02220178
cycle: 5

Station Type Date Time Source
KLBF TAF 2019/09/20 18:46 UTC NOAA

TAF KLBF 201744Z 2018/2118 17021G33KT P6SM SCT180
FM210000 16018G25KT P6SM SCT120
FM210300 17015KT P6SM SCT250 WS020/18050KT
FM211000 30007KT P6SM SCT250
FM211500 32012G19KT P6SM SKC

Example: see airport list